createdAt,value
2022-10-17T00:01:10.319Z,11.40
2022-10-17T00:03:38.981Z,12.80
2022-10-17T00:06:13.125Z,9.13
2022-10-17T00:08:42.676Z,12.02
2022-10-17T00:11:18.209Z,10.15
2022-10-17T00:13:48.920Z,12.85
2022-10-17T00:16:24.567Z,10.93
2022-10-17T00:18:53.107Z,10.50
2022-10-17T00:21:23.092Z,14.43
2022-10-17T00:23:51.378Z,10.90
2022-10-17T00:26:21.555Z,13.32
2022-10-17T00:28:50.680Z,11.88
2022-10-17T00:31:22.840Z,12.20
2022-10-17T00:33:51.928Z,10.05
2022-10-17T00:36:25.142Z,9.88
2022-10-17T00:38:58.081Z,10.82
2022-10-17T00:41:32.091Z,11.35
2022-10-17T00:44:09.188Z,13.52
2022-10-17T00:46:39.351Z,12.95
2022-10-17T00:49:12.677Z,11.38
2022-10-17T00:51:49.898Z,13.32
2022-10-17T00:54:21.698Z,12.57
2022-10-17T00:56:50.853Z,11.88
2022-10-17T00:59:21.331Z,11.43
2022-10-17T01:01:59.251Z,10.30
2022-10-17T01:04:28.187Z,13.32
2022-10-17T01:06:56.536Z,8.63
2022-10-17T01:09:25.706Z,11.10
2022-10-17T01:12:07.577Z,13.60
2022-10-17T01:14:43.619Z,10.07
2022-10-17T01:17:33.391Z,14.02
2022-10-17T01:20:45.870Z,9.40
2022-10-17T01:23:36.612Z,11.45
2022-10-17T01:26:16.844Z,15.48
2022-10-17T01:28:58.310Z,11.88
2022-10-17T01:31:39.412Z,13.43
2022-10-17T01:34:19.983Z,10.18
2022-10-17T01:37:05.363Z,11.52
2022-10-17T01:39:56.991Z,10.73
2022-10-17T01:42:36.779Z,14.55
2022-10-17T01:45:13.132Z,12.30
2022-10-17T01:47:43.078Z,11.88
2022-10-17T01:50:19.768Z,13.68
2022-10-17T01:52:54.069Z,15.68
2022-10-17T01:55:26.422Z,12.48
2022-10-17T01:58:01.216Z,11.07
2022-10-17T02:00:31.685Z,13.80
2022-10-17T02:03:02.639Z,9.35
2022-10-17T02:05:36.331Z,12.02
2022-10-17T02:08:04.699Z,13.68
2022-10-17T02:10:40.380Z,12.15
2022-10-17T02:13:21.173Z,10.07
2022-10-17T02:16:01.051Z,14.15
2022-10-17T02:18:54.054Z,13.00
2022-10-17T02:21:34.151Z,10.95
2022-10-17T02:24:10.923Z,11.20
2022-10-17T02:26:51.315Z,13.02
2022-10-17T02:29:28.680Z,11.63
2022-10-17T02:34:46.994Z,16.25
2022-10-17T02:37:19.736Z,13.25
2022-10-17T02:39:53.553Z,8.77
2022-10-17T02:42:23.614Z,12.27
2022-10-17T02:44:55.349Z,11.38
2022-10-17T02:47:26.872Z,8.30
2022-10-17T02:49:59.120Z,12.52
2022-10-17T02:52:52.989Z,11.55
2022-10-17T02:55:35.925Z,14.85
2022-10-17T02:58:11.545Z,11.43
2022-10-17T03:00:40.948Z,14.35
2022-10-17T03:03:26.849Z,12.27
2022-10-17T03:05:56.370Z,14.05
2022-10-17T03:08:27.027Z,12.35
2022-10-17T03:10:56.577Z,12.57
2022-10-17T03:13:24.668Z,12.23
2022-10-17T03:15:52.254Z,14.38
2022-10-17T03:18:20.770Z,8.55
2022-10-17T03:20:50.248Z,11.55
2022-10-17T03:23:17.863Z,11.38
2022-10-17T03:25:46.175Z,13.70
2022-10-17T03:28:16.184Z,14.63
2022-10-17T03:30:43.680Z,12.80
2022-10-17T03:33:12.479Z,14.77
2022-10-17T03:35:40.785Z,11.88
2022-10-17T03:38:09.508Z,9.27
2022-10-17T03:40:37.570Z,14.18
2022-10-17T03:43:05.246Z,13.95
2022-10-17T03:45:33.638Z,12.93
2022-10-17T03:48:01.780Z,14.32
2022-10-17T03:50:31.257Z,16.67
2022-10-17T03:52:59.788Z,14.68
2022-10-17T03:55:27.252Z,15.98
2022-10-17T03:57:55.055Z,10.73
2022-10-17T04:00:23.868Z,13.68
2022-10-17T04:02:58.685Z,12.05
2022-10-17T04:05:31.099Z,12.57
2022-10-17T04:08:03.948Z,18.17
2022-10-17T04:11:05.238Z,14.90
2022-10-17T04:13:33.732Z,10.77
2022-10-17T04:16:04.870Z,10.50
2022-10-17T04:18:33.408Z,9.98
2022-10-17T04:21:03.259Z,14.45
2022-10-17T04:23:31.676Z,13.52
2022-10-17T04:26:06.331Z,8.23
2022-10-17T04:28:36.720Z,6.65
2022-10-17T04:31:07.909Z,11.07
2022-10-17T04:33:49.346Z,13.48
2022-10-17T04:36:19.603Z,12.23
2022-10-17T04:38:47.810Z,10.40
2022-10-17T04:41:18.886Z,13.23
2022-10-17T04:43:50.168Z,14.55
2022-10-17T04:46:20.884Z,8.35
2022-10-17T04:48:49.723Z,8.05
2022-10-17T04:51:23.043Z,11.30
2022-10-17T04:54:30.565Z,9.80
2022-10-17T04:57:05.607Z,10.82
2022-10-17T04:59:34.824Z,14.73
2022-10-17T05:02:23.762Z,8.55
2022-10-17T05:04:53.299Z,9.80
2022-10-17T05:07:21.490Z,8.38
2022-10-17T05:10:10.274Z,11.32
2022-10-17T05:12:39.760Z,8.40
2022-10-17T05:15:08.616Z,7.85
2022-10-17T05:17:38.890Z,6.75
2022-10-17T05:20:07.043Z,7.93
2022-10-17T05:22:39.641Z,8.07
2022-10-17T05:25:12.486Z,7.90
2022-10-17T05:27:40.252Z,8.60
2022-10-17T05:30:09.867Z,5.95
2022-10-17T05:32:38.858Z,8.05
2022-10-17T05:35:06.976Z,7.45
2022-10-17T05:37:35.107Z,8.00
2022-10-17T05:40:07.171Z,9.73
2022-10-17T05:42:35.013Z,10.82
2022-10-17T05:45:03.020Z,5.15
2022-10-17T05:47:31.650Z,6.75
2022-10-17T05:49:59.631Z,9.35
2022-10-17T05:52:35.324Z,12.50
2022-10-17T05:57:39.509Z,5.65
2022-10-17T06:00:13.012Z,8.27
2022-10-17T06:02:52.015Z,10.18
2022-10-17T06:05:23.589Z,7.88
2022-10-17T06:07:52.679Z,6.45
2022-10-17T06:10:22.135Z,5.72
2022-10-17T06:12:50.136Z,7.88
2022-10-17T06:15:17.654Z,8.20
2022-10-17T06:17:50.354Z,6.40
2022-10-17T06:20:19.003Z,11.10
2022-10-17T06:22:46.392Z,9.45
2022-10-17T06:25:24.109Z,11.27
2022-10-17T06:30:22.171Z,11.70
2022-10-17T06:32:50.202Z,8.98
2022-10-17T06:35:17.649Z,10.27
2022-10-17T06:37:45.230Z,11.13
2022-10-17T06:40:16.975Z,10.68
2022-10-17T06:42:45.975Z,7.90
2022-10-17T06:45:39.523Z,6.93
2022-10-17T06:48:15.345Z,8.05
2022-10-17T06:50:47.211Z,5.90
2022-10-17T06:53:22.953Z,10.30
2022-10-17T06:56:10.892Z,5.25
2022-10-17T06:58:49.464Z,6.57
2022-10-17T07:01:46.973Z,5.18
2022-10-17T07:04:17.867Z,6.03
2022-10-17T07:06:45.531Z,6.20
2022-10-17T07:09:23.029Z,4.75
2022-10-17T07:11:51.920Z,8.55
2022-10-17T07:14:20.327Z,4.47
2022-10-17T07:16:49.272Z,6.15
2022-10-17T07:19:20.054Z,6.75
2022-10-17T07:21:47.771Z,4.47
2022-10-17T07:24:16.983Z,4.78
2022-10-17T07:26:49.929Z,6.82
2022-10-17T07:29:18.749Z,5.95
2022-10-17T07:32:09.322Z,11.35
2022-10-17T07:34:37.303Z,5.88
2022-10-17T07:37:07.479Z,7.40
2022-10-17T07:39:36.168Z,7.57
2022-10-17T07:42:05.209Z,5.72
2022-10-17T07:44:35.651Z,6.38
2022-10-17T07:47:03.229Z,7.55
2022-10-17T07:49:32.098Z,9.02
2022-10-17T07:51:59.480Z,6.25
2022-10-17T07:54:28.934Z,8.02
2022-10-17T07:56:56.297Z,7.00
2022-10-17T07:59:24.527Z,6.28
2022-10-17T08:01:56.013Z,8.82
2022-10-17T08:04:23.983Z,4.57
2022-10-17T08:06:56.372Z,4.05
2022-10-17T08:11:55.515Z,6.00
2022-10-17T08:14:23.697Z,5.10
2022-10-17T08:16:51.074Z,4.65
2022-10-17T08:19:19.505Z,8.02
2022-10-17T08:21:47.020Z,7.35
2022-10-17T08:24:15.448Z,3.97
2022-10-17T08:26:44.004Z,7.50
2022-10-17T08:29:15.045Z,5.80
2022-10-17T08:31:47.432Z,6.18
2022-10-17T08:34:17.407Z,6.60
2022-10-17T08:36:45.323Z,8.75
2022-10-17T08:39:12.688Z,6.97
2022-10-17T08:41:54.611Z,8.75
2022-10-17T08:44:47.332Z,7.05
2022-10-17T08:47:23.514Z,4.65
2022-10-17T08:50:02.183Z,5.60
2022-10-17T08:52:41.656Z,7.50
2022-10-17T08:55:20.918Z,3.92
2022-10-17T08:57:51.537Z,7.07
2022-10-17T09:00:22.062Z,7.20
2022-10-17T09:03:20.602Z,6.72
2022-10-17T09:06:02.404Z,8.05
2022-10-17T09:08:39.213Z,10.45
2022-10-17T09:14:32.601Z,6.50
2022-10-17T09:19:49.273Z,9.80
2022-10-17T09:22:21.900Z,7.18
2022-10-17T09:24:59.376Z,7.45
2022-10-17T09:27:41.130Z,6.18
2022-10-17T09:30:44.758Z,5.93
2022-10-17T09:33:34.642Z,5.40
2022-10-17T09:36:17.872Z,7.07
2022-10-17T09:38:53.254Z,7.03
2022-10-17T09:41:46.365Z,4.60
2022-10-17T09:44:29.493Z,6.05
2022-10-17T09:46:57.392Z,8.50
2022-10-17T09:49:40.146Z,6.15
2022-10-17T09:52:20.018Z,6.35
2022-10-17T09:54:56.638Z,8.48
2022-10-17T09:57:26.851Z,4.72
2022-10-17T10:00:03.499Z,6.45
2022-10-17T10:02:41.371Z,7.15
2022-10-17T10:05:18.934Z,6.20
2022-10-17T10:08:14.870Z,6.57
2022-10-17T10:10:43.507Z,10.60
2022-10-17T10:13:13.956Z,6.93
2022-10-17T10:15:49.952Z,9.50
2022-10-17T10:18:26.605Z,11.15
2022-10-17T10:21:10.095Z,5.10
2022-10-17T10:23:40.504Z,11.73
2022-10-17T10:26:31.353Z,6.35
2022-10-17T10:29:22.371Z,8.15
2022-10-17T10:31:53.218Z,4.50
2022-10-17T10:34:28.974Z,9.40
2022-10-17T10:37:02.663Z,6.20
2022-10-17T10:39:49.808Z,9.60
2022-10-17T10:42:30.975Z,5.43
2022-10-17T10:45:48.934Z,5.85
2022-10-17T10:48:22.699Z,4.82
2022-10-17T10:51:16.459Z,5.65
2022-10-17T10:53:49.343Z,8.85
2022-10-17T10:56:51.112Z,5.03
2022-10-17T10:59:56.361Z,3.83
2022-10-17T11:03:08.432Z,7.40
2022-10-17T11:05:54.349Z,8.93
2022-10-17T11:08:49.856Z,5.50
2022-10-17T11:11:44.654Z,8.00
2022-10-17T11:14:35.031Z,5.45
2022-10-17T11:17:12.634Z,5.47
2022-10-17T11:19:56.497Z,6.72
2022-10-17T11:22:31.234Z,5.60
2022-10-17T11:25:13.012Z,4.95
2022-10-17T11:27:40.940Z,7.15
2022-10-17T11:30:14.042Z,6.20
2022-10-17T11:32:56.923Z,8.48
2022-10-17T11:35:53.876Z,6.97
2022-10-17T11:38:43.776Z,8.68
2022-10-17T11:41:18.012Z,6.07
2022-10-17T11:44:00.948Z,4.75
2022-10-17T11:46:29.601Z,5.45
2022-10-17T11:49:19.895Z,7.68
2022-10-17T11:52:18.300Z,4.90
2022-10-17T11:55:03.825Z,6.25
2022-10-17T11:57:32.859Z,5.05
2022-10-17T12:00:28.847Z,12.30
2022-10-17T12:03:28.054Z,3.38
2022-10-17T12:06:14.900Z,7.20
2022-10-17T12:08:47.751Z,5.50
2022-10-17T12:11:35.172Z,8.43
2022-10-17T12:14:05.802Z,5.32
2022-10-17T12:19:26.524Z,3.15
2022-10-17T12:22:20.526Z,5.55
2022-10-17T12:24:57.437Z,8.75
2022-10-17T12:30:28.470Z,7.60
2022-10-17T12:33:31.470Z,4.63
2022-10-17T12:36:17.883Z,6.03
2022-10-17T12:38:50.164Z,5.30
2022-10-17T12:41:40.876Z,5.50
2022-10-17T12:44:12.779Z,5.15
2022-10-17T12:47:01.495Z,5.82
2022-10-17T12:49:50.386Z,2.90
2022-10-17T12:52:36.729Z,5.18
2022-10-17T12:55:34.143Z,3.58
2022-10-17T12:58:05.148Z,3.40
2022-10-17T13:00:43.774Z,6.88
2022-10-17T13:03:29.250Z,6.95
2022-10-17T13:06:06.857Z,4.45
2022-10-17T13:08:39.258Z,4.43
2022-10-17T13:11:09.218Z,5.13
2022-10-17T13:13:49.376Z,4.20
2022-10-17T13:16:40.103Z,3.13
2022-10-17T13:19:16.034Z,6.50
2022-10-17T13:21:56.302Z,8.03
2022-10-17T13:24:30.691Z,5.18
2022-10-17T13:26:59.224Z,8.25
2022-10-17T13:29:28.778Z,8.18
2022-10-17T13:32:03.841Z,5.28
2022-10-17T13:34:33.559Z,5.88
2022-10-17T13:37:06.192Z,3.58
2022-10-17T13:39:52.830Z,5.53
2022-10-17T13:42:30.138Z,8.25
2022-10-17T13:44:59.657Z,4.32
2022-10-17T13:47:35.611Z,4.28
2022-10-17T13:50:12.798Z,4.10
2022-10-17T13:52:50.086Z,3.15
2022-10-17T13:55:20.276Z,2.92
2022-10-17T13:57:48.635Z,9.23
2022-10-17T14:00:21.477Z,7.40
2022-10-17T14:02:53.458Z,4.32
2022-10-17T14:05:24.436Z,7.32
2022-10-17T14:08:12.377Z,7.00
2022-10-17T14:10:42.563Z,8.75
2022-10-17T14:13:24.822Z,9.10
2022-10-17T14:15:55.960Z,4.10
2022-10-17T14:18:44.545Z,6.50
2022-10-17T14:24:23.332Z,5.05
2022-10-17T14:26:58.992Z,8.40
2022-10-17T14:29:32.166Z,11.90
2022-10-17T14:32:11.045Z,13.50
2022-10-17T14:34:40.940Z,12.90
2022-10-17T14:37:21.064Z,13.15
2022-10-17T14:39:52.044Z,15.68
2022-10-17T14:42:23.091Z,11.35
2022-10-17T14:44:52.618Z,12.55
2022-10-17T14:47:43.923Z,16.70
2022-10-17T14:50:11.870Z,12.40
2022-10-17T14:52:41.468Z,10.25
2022-10-17T14:55:27.827Z,11.98
2022-10-17T14:57:56.302Z,6.57
2022-10-17T15:00:26.200Z,5.25
2022-10-17T15:02:55.630Z,8.30
2022-10-17T15:05:26.073Z,10.35
2022-10-17T15:07:53.936Z,8.88
2022-10-17T15:10:35.877Z,3.75
2022-10-17T15:13:27.088Z,6.60
2022-10-17T15:15:55.590Z,7.35
2022-10-17T15:18:23.072Z,5.63
2022-10-17T15:20:59.559Z,4.75
2022-10-17T15:23:35.406Z,6.47
2022-10-17T15:26:02.991Z,6.05
2022-10-17T15:28:31.594Z,9.35
2022-10-17T15:31:00.573Z,4.72
2022-10-17T15:33:28.041Z,7.28
2022-10-17T15:35:55.598Z,7.90
2022-10-17T15:38:23.627Z,11.77
2022-10-17T15:40:52.081Z,8.63
2022-10-17T15:43:19.863Z,5.28
2022-10-17T15:45:48.073Z,10.35
2022-10-17T15:48:28.692Z,5.68
2022-10-17T15:50:57.433Z,5.20
2022-10-17T15:53:24.987Z,7.78
2022-10-17T15:55:52.860Z,6.60
2022-10-17T15:58:21.700Z,5.78
2022-10-17T16:00:49.998Z,3.13
2022-10-17T16:03:17.401Z,6.35
2022-10-17T16:05:46.004Z,4.55
2022-10-17T16:08:14.570Z,6.72
2022-10-17T16:10:42.464Z,4.28
2022-10-17T16:13:18.744Z,4.10
2022-10-17T16:15:47.776Z,6.63
2022-10-17T16:18:15.651Z,8.32
2022-10-17T16:20:44.228Z,6.03
2022-10-17T16:23:13.589Z,8.50
2022-10-17T16:25:42.195Z,6.07
2022-10-17T16:28:10.812Z,7.28
2022-10-17T16:30:43.078Z,7.40
2022-10-17T16:33:11.581Z,6.68
2022-10-17T16:35:39.346Z,4.38
2022-10-17T16:38:08.504Z,6.45
2022-10-17T16:40:39.372Z,4.88
2022-10-17T16:43:08.068Z,5.78
2022-10-17T16:45:36.649Z,8.43
2022-10-17T16:48:07.103Z,8.98
2022-10-17T16:50:35.772Z,6.35
2022-10-17T16:53:04.107Z,8.63
2022-10-17T16:55:31.507Z,11.07
2022-10-17T16:58:01.552Z,12.68
2022-10-17T17:00:28.994Z,9.27
2022-10-17T17:02:58.904Z,7.20
2022-10-17T17:05:26.421Z,15.48
2022-10-17T17:07:55.758Z,8.70
2022-10-17T17:10:25.886Z,8.73
2022-10-17T17:12:53.259Z,8.25
2022-10-17T17:15:20.603Z,8.35
2022-10-17T17:17:52.414Z,8.88
2022-10-17T17:20:23.088Z,5.20
2022-10-17T17:22:52.451Z,9.77
2022-10-17T17:25:22.950Z,6.80
2022-10-17T17:27:50.480Z,5.53
2022-10-17T17:30:18.045Z,8.88
2022-10-17T17:32:45.434Z,4.45
2022-10-17T17:35:14.520Z,8.35
2022-10-17T17:37:43.318Z,8.60
2022-10-17T17:40:11.495Z,8.82
2022-10-17T17:42:38.911Z,7.03
2022-10-17T17:45:08.575Z,7.15
2022-10-17T17:47:36.920Z,6.55
2022-10-17T17:50:04.654Z,7.75
2022-10-17T17:52:32.138Z,5.38
2022-10-17T17:54:59.679Z,4.95
2022-10-17T17:57:29.492Z,5.78
2022-10-17T17:59:56.869Z,6.53
2022-10-17T18:02:25.754Z,5.55
2022-10-17T18:04:54.054Z,10.75
2022-10-17T18:07:21.619Z,10.77
2022-10-17T18:09:51.007Z,11.85
2022-10-17T18:12:18.572Z,9.48
2022-10-17T18:14:47.577Z,8.77
2022-10-17T18:17:15.483Z,11.15
2022-10-17T18:19:42.890Z,12.57
2022-10-17T18:22:11.167Z,10.50
2022-10-17T18:24:38.613Z,12.65
2022-10-17T18:27:06.012Z,9.35
2022-10-17T18:29:35.270Z,8.93
2022-10-17T18:32:02.630Z,14.95
2022-10-17T18:34:32.421Z,10.40
2022-10-17T18:37:00.220Z,12.88
2022-10-17T18:39:28.078Z,13.25
2022-10-17T18:41:55.613Z,9.07
2022-10-17T18:44:24.796Z,11.55
2022-10-17T18:46:58.581Z,13.40
2022-10-17T18:49:29.726Z,10.13
2022-10-17T18:51:57.131Z,9.15
2022-10-17T18:54:25.827Z,12.00
2022-10-17T18:56:54.765Z,11.02
2022-10-17T18:59:22.675Z,11.35
2022-10-17T19:01:50.423Z,12.38
2022-10-17T19:04:18.602Z,10.43
2022-10-17T19:06:46.057Z,12.20
2022-10-17T19:09:15.141Z,15.95
2022-10-17T19:11:43.302Z,15.50
2022-10-17T19:14:13.532Z,16.23
2022-10-17T19:16:45.982Z,13.80
2022-10-17T19:19:17.402Z,15.57
2022-10-17T19:21:45.758Z,13.48
2022-10-17T19:24:16.144Z,11.48
2022-10-17T19:26:47.734Z,13.02
2022-10-17T19:29:18.507Z,13.02
2022-10-17T19:31:46.950Z,13.75
2022-10-17T19:34:17.899Z,13.30
2022-10-17T19:36:46.951Z,10.50
2022-10-17T19:39:19.258Z,13.77
2022-10-17T19:41:48.531Z,12.18
2022-10-17T19:44:16.587Z,12.73
2022-10-17T19:46:49.099Z,16.10
2022-10-17T19:49:17.993Z,14.20
2022-10-17T19:51:45.878Z,13.68
2022-10-17T19:54:16.551Z,10.93
2022-10-17T19:56:45.632Z,16.30
2022-10-17T19:59:15.424Z,12.30
2022-10-17T20:01:43.307Z,13.43
2022-10-17T20:04:13.119Z,13.57
2022-10-17T20:06:41.384Z,10.65
2022-10-17T20:09:12.374Z,13.70
2022-10-17T20:11:43.286Z,13.95
2022-10-17T20:14:10.686Z,14.30
2022-10-17T20:16:38.350Z,11.98
2022-10-17T20:19:09.997Z,10.23
2022-10-17T20:21:39.875Z,13.25
2022-10-17T20:24:09.917Z,14.80
2022-10-17T20:26:39.362Z,13.82
2022-10-17T20:29:14.705Z,15.15
2022-10-17T20:31:45.345Z,15.60
2022-10-17T20:34:14.799Z,11.05
2022-10-17T20:36:42.827Z,12.70
2022-10-17T20:39:17.268Z,11.32
2022-10-17T20:41:46.454Z,10.32
2022-10-17T20:44:15.290Z,12.18
2022-10-17T20:46:52.989Z,12.27
2022-10-17T20:49:29.847Z,14.82
2022-10-17T20:51:58.707Z,12.30
2022-10-17T20:54:27.830Z,14.48
2022-10-17T20:56:55.512Z,13.80
2022-10-17T20:59:24.823Z,12.93
2022-10-17T21:01:54.429Z,14.02
2022-10-17T21:04:44.645Z,12.88
2022-10-17T21:07:11.779Z,12.77
2022-10-17T21:09:41.195Z,13.48
2022-10-17T21:12:09.616Z,15.18
2022-10-17T21:14:37.463Z,14.80
2022-10-17T21:17:05.740Z,14.60
2022-10-17T21:19:33.445Z,14.95
2022-10-17T21:22:01.705Z,16.05
2022-10-17T21:24:30.195Z,16.98
2022-10-17T21:26:59.960Z,16.33
2022-10-17T21:29:27.628Z,13.82
2022-10-17T21:31:55.505Z,14.70
2022-10-17T21:34:26.603Z,13.90
2022-10-17T21:36:56.077Z,16.17
2022-10-17T21:39:25.196Z,15.30
2022-10-17T21:41:53.716Z,12.73
2022-10-17T21:44:26.132Z,13.02
2022-10-17T21:46:55.770Z,15.02
2022-10-17T21:49:25.308Z,13.40
2022-10-17T21:51:53.739Z,10.95
2022-10-17T21:54:25.088Z,13.23
2022-10-17T21:56:53.655Z,12.68
2022-10-17T21:59:21.036Z,14.10
2022-10-17T22:01:48.707Z,15.80
2022-10-17T22:04:19.252Z,13.85
2022-10-17T22:06:51.117Z,13.57
2022-10-17T22:09:24.021Z,19.13
2022-10-17T22:11:55.823Z,18.45
2022-10-17T22:14:25.446Z,15.50
2022-10-17T22:16:54.213Z,17.00
2022-10-17T22:19:25.331Z,15.82
2022-10-17T22:21:54.132Z,17.23
2022-10-17T22:24:22.870Z,17.33
2022-10-17T22:26:54.220Z,16.33
2022-10-17T22:29:21.621Z,15.18
2022-10-17T22:31:49.271Z,16.38
2022-10-17T22:34:19.185Z,16.95
2022-10-17T22:36:50.475Z,15.93
2022-10-17T22:39:18.133Z,16.30
2022-10-17T22:41:45.571Z,19.40
2022-10-17T22:44:13.016Z,14.77
2022-10-17T22:46:40.965Z,18.27
2022-10-17T22:49:09.204Z,18.70
2022-10-17T22:51:36.878Z,19.40
2022-10-17T22:54:04.383Z,16.65
2022-10-17T22:56:32.443Z,17.65
2022-10-17T22:59:01.451Z,17.02
2022-10-17T23:01:29.880Z,15.00
2022-10-17T23:03:57.340Z,16.00
2022-10-17T23:06:24.808Z,14.55
2022-10-17T23:08:52.460Z,16.92
2022-10-17T23:11:21.040Z,16.83
2022-10-17T23:13:50.140Z,18.35
2022-10-17T23:16:19.216Z,15.00
2022-10-17T23:18:47.433Z,14.93
2022-10-17T23:21:14.919Z,13.98
2022-10-17T23:23:42.324Z,14.13
2022-10-17T23:26:12.427Z,12.25
2022-10-17T23:28:41.893Z,16.23
2022-10-17T23:31:21.146Z,11.07
2022-10-17T23:33:50.091Z,11.60
2022-10-17T23:36:19.927Z,13.90
2022-10-17T23:38:51.734Z,15.48
2022-10-17T23:43:52.540Z,16.73
2022-10-17T23:46:20.692Z,15.38
2022-10-17T23:48:48.058Z,21.20
2022-10-17T23:51:15.643Z,17.25
2022-10-17T23:53:43.880Z,18.95
2022-10-17T23:56:12.015Z,17.13
2022-10-17T23:58:40.168Z,18.95
